createdAt,value
2019-01-11T00:00:59.350Z,98380.00
2019-01-11T00:03:29.182Z,98383.00
2019-01-11T00:05:59.171Z,98385.00
2019-01-11T00:08:28.556Z,98391.00
2019-01-11T00:10:57.907Z,98387.00
2019-01-11T00:13:27.335Z,98378.00
2019-01-11T00:15:56.717Z,98404.00
2019-01-11T00:18:26.251Z,98378.00
2019-01-11T00:20:55.621Z,98365.00
2019-01-11T00:23:24.992Z,98380.00
2019-01-11T00:25:54.652Z,98375.00
2019-01-11T00:28:24.037Z,98375.00
2019-01-11T00:30:53.385Z,98368.00
2019-01-11T00:33:22.781Z,98369.00
2019-01-11T00:35:52.148Z,98366.00
2019-01-11T00:38:21.508Z,98364.00
2019-01-11T00:40:50.896Z,98354.00
2019-01-11T00:43:20.268Z,98351.00
2019-01-11T00:45:49.617Z,98349.00
2019-01-11T00:48:19.023Z,98357.00
2019-01-11T00:50:48.392Z,98335.00
2019-01-11T00:53:17.746Z,98344.00
2019-01-11T00:55:47.129Z,98338.00
2019-01-11T00:58:16.496Z,98363.00
2019-01-11T01:00:46.944Z,98338.00
2019-01-11T01:03:16.305Z,98339.00
2019-01-11T01:05:45.661Z,98336.00
2019-01-11T01:08:15.052Z,98341.00
2019-01-11T01:10:45.706Z,98340.00
2019-01-11T01:13:15.143Z,98347.00
2019-01-11T01:15:44.506Z,98340.00
2019-01-11T01:18:13.892Z,98342.00
2019-01-11T01:20:43.335Z,98346.00
2019-01-11T01:23:12.713Z,98343.00
2019-01-11T01:25:42.159Z,98348.00
2019-01-11T01:28:11.534Z,98340.00
2019-01-11T01:30:40.910Z,98343.00
2019-01-11T01:33:10.299Z,98332.00
2019-01-11T01:35:39.661Z,98342.00
2019-01-11T01:38:09.021Z,98326.00
2019-01-11T01:40:38.382Z,98333.00
2019-01-11T01:43:07.737Z,98334.00
2019-01-11T01:45:37.186Z,98335.00
2019-01-11T01:48:06.774Z,98326.00
2019-01-11T01:50:36.135Z,98328.00
2019-01-11T01:53:05.570Z,98330.00
2019-01-11T01:55:35.193Z,98328.00
2019-01-11T02:17:12.470Z,98316.00
2019-01-11T02:19:41.816Z,98312.00
2019-01-11T02:22:11.184Z,98313.00
2019-01-11T02:24:40.553Z,98312.00
2019-01-11T02:27:09.911Z,98292.00
2019-01-11T02:29:39.271Z,98300.00
2019-01-11T02:32:08.716Z,98290.00
2019-01-11T02:34:38.093Z,98290.00
2019-01-11T02:37:07.535Z,98280.00
2019-01-11T02:39:36.943Z,98284.00
2019-01-11T02:42:06.365Z,98266.00
2019-01-11T02:44:35.732Z,98281.00
2019-01-11T02:47:05.246Z,98279.00
2019-01-11T02:49:40.022Z,98268.00
2019-01-11T02:52:06.040Z,98282.00
2019-01-11T02:54:35.444Z,98264.00
2019-01-11T02:57:04.822Z,98266.00
2019-01-11T02:59:34.199Z,98264.00
2019-01-11T03:02:03.829Z,98278.00
2019-01-11T03:04:33.198Z,98270.00
2019-01-11T03:07:02.605Z,98260.00
2019-01-11T03:09:32.005Z,98260.00
2019-01-11T03:12:01.517Z,98264.00
2019-01-11T03:14:30.957Z,98254.00
2019-01-11T03:17:00.316Z,98251.00
2019-01-11T03:19:31.131Z,98251.00
2019-01-11T03:22:00.574Z,98257.00
2019-01-11T03:24:29.982Z,98250.00
2019-01-11T03:26:59.344Z,98238.00
2019-01-11T03:29:28.694Z,98248.00
2019-01-11T03:31:58.085Z,98231.00
2019-01-11T03:34:27.444Z,98253.00
2019-01-11T03:36:56.810Z,98232.00
2019-01-11T03:39:26.173Z,98234.00
2019-01-11T03:41:57.179Z,98235.00
2019-01-11T03:44:26.567Z,98232.00
2019-01-11T03:46:55.985Z,98226.00
2019-01-11T03:49:25.344Z,98231.00
2019-01-11T03:51:54.714Z,98233.00
2019-01-11T03:54:24.094Z,98229.00
2019-01-11T03:56:53.524Z,98220.00
2019-01-11T03:59:22.891Z,98223.00
2019-01-11T04:01:52.288Z,98213.00
2019-01-11T04:04:21.654Z,98218.00
2019-01-11T04:06:51.037Z,98227.00
2019-01-11T04:09:20.446Z,98219.00
2019-01-11T04:11:49.839Z,98223.00
2019-01-11T04:14:19.211Z,98222.00
2019-01-11T04:16:48.594Z,98233.00
2019-01-11T04:19:19.111Z,98225.00
2019-01-11T04:21:50.755Z,98221.00
2019-01-11T04:24:21.372Z,98202.00
2019-01-11T04:26:50.748Z,98206.00
2019-01-11T04:29:20.127Z,98207.00
2019-01-11T04:31:49.498Z,98206.00
2019-01-11T04:34:18.857Z,98206.00
2019-01-11T04:36:48.213Z,98213.00
2019-01-11T04:39:17.675Z,98213.00
2019-01-11T04:41:47.408Z,98199.00
2019-01-11T04:44:16.761Z,98205.00
2019-01-11T04:46:46.804Z,98209.00
2019-01-11T04:49:16.159Z,98195.00
2019-01-11T04:51:45.619Z,98215.00
2019-01-11T04:54:15.046Z,98197.00
2019-01-11T04:56:44.480Z,98199.00
2019-01-11T04:59:13.834Z,98189.00
2019-01-11T05:01:43.218Z,98205.00
2019-01-11T05:04:12.586Z,98187.00
2019-01-11T05:06:41.950Z,98210.00
2019-01-11T05:09:11.698Z,98196.00
2019-01-11T05:11:41.058Z,98187.00
2019-01-11T05:14:10.436Z,98189.00
2019-01-11T05:16:39.919Z,98177.00
2019-01-11T05:19:09.291Z,98170.00
2019-01-11T05:21:38.668Z,98172.00
2019-01-11T05:24:08.424Z,98167.00
2019-01-11T05:26:37.808Z,98178.00
2019-01-11T05:29:07.248Z,98164.00
2019-01-11T05:31:37.035Z,98176.00
2019-01-11T05:34:06.492Z,98172.00
2019-01-11T05:36:35.870Z,98167.00
2019-01-11T05:39:08.107Z,98165.00
2019-01-11T05:41:37.458Z,98166.00
2019-01-11T05:44:06.817Z,98156.00
2019-01-11T05:46:36.200Z,98170.00
2019-01-11T05:49:05.555Z,98174.00
2019-01-11T05:51:34.945Z,98163.00
2019-01-11T05:54:04.664Z,98164.00
2019-01-11T05:56:34.031Z,98171.00
2019-01-11T05:59:04.571Z,98185.00
2019-01-11T06:01:33.951Z,98163.00
2019-01-11T06:04:04.953Z,98166.00
2019-01-11T06:06:35.953Z,98162.00
2019-01-11T06:09:07.363Z,98163.00
2019-01-11T06:11:36.730Z,98151.00
2019-01-11T06:14:06.097Z,98160.00
2019-01-11T06:16:35.487Z,98154.00
2019-01-11T06:19:04.864Z,98157.00
2019-01-11T06:21:34.303Z,98148.00
2019-01-11T06:24:03.711Z,98154.00
2019-01-11T06:26:34.103Z,98152.00
2019-01-11T06:29:03.474Z,98159.00
2019-01-11T06:31:33.223Z,98182.00
2019-01-11T06:34:02.580Z,98155.00
2019-01-11T06:36:31.975Z,98152.00
2019-01-11T06:39:01.369Z,98152.00
2019-01-11T06:41:32.374Z,98164.00
2019-01-11T06:44:01.756Z,98161.00
2019-01-11T06:46:31.139Z,98164.00
2019-01-11T06:49:00.509Z,98165.00
2019-01-11T06:51:29.870Z,98162.00
2019-01-11T06:53:59.720Z,98155.00
2019-01-11T06:56:29.121Z,98165.00
2019-01-11T06:58:58.512Z,98160.00
2019-01-11T07:01:27.850Z,98169.00
2019-01-11T07:03:57.189Z,98151.00
2019-01-11T07:06:26.571Z,98156.00
2019-01-11T07:08:55.953Z,98165.00
2019-01-11T07:11:25.472Z,98169.00
2019-01-11T07:13:54.823Z,98169.00
2019-01-11T07:16:24.601Z,98167.00
2019-01-11T07:18:53.961Z,98169.00
2019-01-11T07:21:23.313Z,98172.00
2019-01-11T07:23:52.762Z,98165.00
2019-01-11T07:26:22.117Z,98183.00
2019-01-11T07:28:52.520Z,98170.00
2019-01-11T07:31:21.889Z,98186.00
2019-01-11T07:33:51.256Z,98185.00
2019-01-11T07:36:24.731Z,98183.00
2019-01-11T07:38:54.545Z,98175.00
2019-01-11T07:41:23.902Z,98163.00
2019-01-11T07:43:53.257Z,98174.00
2019-01-11T07:46:22.634Z,98166.00
2019-01-11T07:48:51.994Z,98170.00
2019-01-11T07:51:21.352Z,98186.00
2019-01-11T07:53:50.739Z,98176.00
2019-01-11T07:56:20.087Z,98162.00
2019-01-11T07:58:49.445Z,98179.00
2019-01-11T08:01:19.457Z,98174.00
2019-01-11T08:03:48.838Z,98160.00
2019-01-11T08:06:18.528Z,98161.00
2019-01-11T08:08:47.912Z,98158.00
2019-01-11T08:11:17.268Z,98170.00
2019-01-11T08:13:46.628Z,98161.00
2019-01-11T08:16:15.988Z,98165.00
2019-01-11T08:18:45.337Z,98165.00
2019-01-11T08:21:14.693Z,98160.00
2019-01-11T08:23:44.455Z,98159.00
2019-01-11T08:26:13.800Z,98164.00
2019-01-11T08:28:43.165Z,98157.00
2019-01-11T08:31:13.724Z,98163.00
2019-01-11T08:33:43.092Z,98160.00
2019-01-11T08:36:12.607Z,98163.00
2019-01-11T08:38:41.968Z,98160.00
2019-01-11T08:41:11.326Z,98164.00
2019-01-11T08:43:40.680Z,98167.00
2019-01-11T08:46:10.148Z,98166.00
2019-01-11T08:48:39.495Z,98168.00
2019-01-11T08:51:08.924Z,98161.00
2019-01-11T08:53:38.286Z,98168.00
2019-01-11T08:56:08.464Z,98174.00
2019-01-11T08:58:39.755Z,98159.00
2019-01-11T09:01:09.206Z,98162.00
2019-01-11T09:03:38.652Z,98174.00
2019-01-11T09:06:08.081Z,98177.00
2019-01-11T09:08:37.963Z,98170.00
2019-01-11T09:11:07.425Z,98175.00
2019-01-11T09:13:36.991Z,98166.00
2019-01-11T09:16:06.871Z,98182.00
2019-01-11T09:18:38.107Z,98176.00
2019-01-11T09:21:09.606Z,98180.00
2019-01-11T09:23:40.284Z,98176.00
2019-01-11T09:26:09.914Z,98171.00
2019-01-11T09:28:39.402Z,98180.00
2019-01-11T09:31:08.907Z,98179.00
2019-01-11T09:33:38.972Z,98185.00
2019-01-11T09:36:08.537Z,98184.00
2019-01-11T09:38:38.043Z,98192.00
2019-01-11T09:41:08.411Z,98189.00
2019-01-11T09:43:37.871Z,98184.00
2019-01-11T09:46:07.766Z,98185.00
2019-01-11T09:48:37.135Z,98177.00
2019-01-11T09:51:06.488Z,98186.00
2019-01-11T09:53:35.934Z,98188.00
2019-01-11T09:56:05.813Z,98178.00
2019-01-11T09:58:35.175Z,98170.00
2019-01-11T10:01:04.603Z,98167.00
2019-01-11T10:03:33.959Z,98180.00
2019-01-11T10:06:03.310Z,98171.00
2019-01-11T10:08:32.733Z,98169.00
2019-01-11T10:11:02.082Z,98165.00
2019-01-11T10:13:31.434Z,98166.00
2019-01-11T10:16:00.883Z,98168.00
2019-01-11T10:18:30.262Z,98166.00
2019-01-11T10:20:59.606Z,98176.00
2019-01-11T10:23:32.029Z,98156.00
2019-01-11T10:26:01.414Z,98158.00
2019-01-11T10:28:30.761Z,98160.00
2019-01-11T10:31:00.731Z,98155.00
2019-01-11T10:33:35.946Z,98162.00
2019-01-11T10:36:01.927Z,98150.00
2019-01-11T10:38:31.291Z,98149.00
2019-01-11T10:41:00.709Z,98158.00
2019-01-11T10:43:30.121Z,98150.00
2019-01-11T10:48:38.905Z,98154.00
2019-01-11T10:51:08.261Z,98161.00
2019-01-11T10:53:37.610Z,98149.00
2019-01-11T10:56:07.008Z,98139.00
2019-01-11T10:58:36.416Z,98146.00
2019-01-11T11:01:06.050Z,98135.00
2019-01-11T11:03:35.471Z,98141.00
2019-01-11T11:06:04.995Z,98138.00
2019-01-11T11:08:34.394Z,98134.00
2019-01-11T11:11:04.572Z,98139.00
2019-01-11T11:13:33.989Z,98148.00
2019-01-11T11:16:03.345Z,98148.00
2019-01-11T11:18:32.704Z,98142.00
2019-01-11T11:21:02.047Z,98139.00
2019-01-11T11:23:31.472Z,98147.00
2019-01-11T11:26:00.872Z,98144.00
2019-01-11T11:28:30.223Z,98148.00
2019-01-11T11:31:00.576Z,98131.00
2019-01-11T11:33:30.463Z,98129.00
2019-01-11T11:35:59.827Z,98126.00
2019-01-11T11:38:29.540Z,98127.00
2019-01-11T11:40:59.261Z,98133.00
2019-01-11T11:43:28.757Z,98122.00
2019-01-11T11:45:58.403Z,98109.00
2019-01-11T11:48:28.005Z,98102.00
2019-01-11T11:50:57.510Z,98104.00
2019-01-11T11:53:26.928Z,98109.00
2019-01-11T11:55:56.330Z,98110.00
2019-01-11T11:58:25.950Z,98100.00
2019-01-11T12:00:55.428Z,98109.00
2019-01-11T12:03:24.992Z,98096.00
2019-01-11T12:05:54.357Z,98087.00
2019-01-11T12:08:23.731Z,98099.00
2019-01-11T12:10:53.165Z,98089.00
2019-01-11T12:13:22.751Z,98091.00
2019-01-11T12:15:52.197Z,98095.00
2019-01-11T12:18:22.225Z,98089.00
2019-01-11T12:20:51.588Z,98092.00
2019-01-11T12:23:22.667Z,98004.00
2019-01-11T12:25:52.120Z,98076.00
2019-01-11T12:28:21.508Z,98071.00
2019-01-11T12:30:50.907Z,98073.00
2019-01-11T12:33:20.305Z,98070.00
2019-01-11T12:35:49.858Z,98063.00
2019-01-11T12:38:19.224Z,98074.00
2019-01-11T12:40:49.248Z,98051.00
2019-01-11T12:43:18.955Z,98059.00
2019-01-11T12:45:48.376Z,98050.00
2019-01-11T12:48:19.535Z,98054.00
2019-01-11T12:50:50.534Z,98054.00
2019-01-11T12:53:19.960Z,98044.00
2019-01-11T12:55:49.728Z,98030.00
2019-01-11T12:58:19.059Z,98043.00
2019-01-11T13:00:48.762Z,98039.00
2019-01-11T13:03:21.363Z,98034.00
2019-01-11T13:05:50.734Z,98042.00
2019-01-11T13:08:20.104Z,98037.00
2019-01-11T13:10:50.155Z,98035.00
2019-01-11T13:13:19.510Z,98018.00
2019-01-11T13:15:48.872Z,98023.00
2019-01-11T13:18:18.258Z,98035.00
2019-01-11T13:20:47.615Z,98023.00
2019-01-11T13:23:16.967Z,98010.00
2019-01-11T13:25:46.947Z,98023.00
2019-01-11T13:28:16.306Z,98024.00
2019-01-11T13:30:45.675Z,98015.00
2019-01-11T13:33:15.104Z,98021.00
2019-01-11T13:35:44.457Z,98021.00
2019-01-11T13:38:13.858Z,98014.00
2019-01-11T13:40:43.192Z,98013.00
2019-01-11T13:43:13.267Z,98014.00
2019-01-11T13:45:42.622Z,98012.00
2019-01-11T13:48:12.695Z,98016.00
2019-01-11T13:50:42.057Z,98010.00
2019-01-11T13:53:11.474Z,98023.00
2019-01-11T13:55:40.915Z,98011.00
2019-01-11T13:58:10.269Z,98018.00
2019-01-11T14:00:39.621Z,98008.00
2019-01-11T14:03:09.079Z,98010.00
2019-01-11T14:05:38.589Z,98015.00
2019-01-11T14:08:08.017Z,98015.00
2019-01-11T14:10:37.901Z,98016.00
2019-01-11T14:13:07.300Z,98004.00
2019-01-11T14:15:36.972Z,98016.00
2019-01-11T14:18:06.794Z,98007.00
2019-01-11T14:20:36.198Z,98010.00
2019-01-11T14:23:05.812Z,98010.00
2019-01-11T14:25:35.261Z,98023.00
2019-01-11T14:28:05.074Z,98025.00
2019-01-11T14:30:34.547Z,98021.00
2019-01-11T14:33:04.383Z,98006.00
2019-01-11T14:35:33.720Z,98010.00
2019-01-11T14:38:03.068Z,97985.00
2019-01-11T14:40:32.725Z,97990.00
2019-01-11T14:43:02.094Z,98002.00
2019-01-11T14:45:31.885Z,97989.00
2019-01-11T14:48:01.306Z,97996.00
2019-01-11T14:50:30.664Z,98000.00
2019-01-11T14:53:00.008Z,97999.00
2019-01-11T14:55:29.407Z,98017.00
2019-01-11T14:57:58.774Z,98008.00
2019-01-11T15:00:28.203Z,98010.00
2019-01-11T15:02:57.609Z,98006.00
2019-01-11T15:05:26.955Z,98023.00
2019-01-11T15:07:56.304Z,98008.00
2019-01-11T15:10:25.756Z,98023.00
2019-01-11T15:12:55.106Z,98030.00
2019-01-11T15:15:24.477Z,98036.00
2019-01-11T15:17:54.237Z,98026.00
2019-01-11T15:20:23.600Z,98034.00
2019-01-11T15:22:52.958Z,98027.00
2019-01-11T15:25:22.322Z,98018.00
2019-01-11T15:27:51.682Z,98025.00
2019-01-11T15:30:21.495Z,98011.00
2019-01-11T15:32:50.867Z,98001.00
2019-01-11T15:35:20.304Z,98006.00
2019-01-11T15:37:49.640Z,98015.00
2019-01-11T15:40:23.876Z,98008.00
2019-01-11T15:42:53.225Z,98009.00
2019-01-11T15:45:22.574Z,97992.00
2019-01-11T15:47:52.645Z,97998.00
2019-01-11T15:50:52.230Z,98001.00
2019-01-11T15:53:21.597Z,97991.00
2019-01-11T15:55:51.013Z,97984.00
2019-01-11T15:58:20.378Z,97996.00
2019-01-11T16:00:50.556Z,97992.00
2019-01-11T16:03:19.927Z,97984.00
2019-01-11T16:05:53.892Z,97970.00
2019-01-11T16:08:23.255Z,97978.00
2019-01-11T16:11:09.223Z,97979.00
2019-01-11T16:13:43.245Z,97976.00
2019-01-11T16:16:17.807Z,97991.00
2019-01-11T16:18:47.213Z,97976.00
2019-01-11T16:21:17.288Z,97986.00
2019-01-11T16:23:46.627Z,97983.00
2019-01-11T16:26:15.975Z,97981.00
2019-01-11T16:28:45.336Z,97972.00
2019-01-11T16:31:14.696Z,97992.00
2019-01-11T16:33:44.106Z,97981.00
2019-01-11T16:36:13.414Z,97986.00
2019-01-11T16:38:42.773Z,97989.00
2019-01-11T16:41:12.131Z,97982.00
2019-01-11T16:43:41.515Z,97973.00
2019-01-11T16:46:10.858Z,97989.00
2019-01-11T16:48:40.203Z,97973.00
2019-01-11T16:51:09.907Z,97998.00
2019-01-11T16:53:39.249Z,97985.00
2019-01-11T16:56:08.587Z,98001.00
2019-01-11T16:58:37.944Z,97989.00
2019-01-11T17:01:07.289Z,98003.00
2019-01-11T17:03:36.634Z,97991.00
2019-01-11T17:06:06.671Z,97990.00
2019-01-11T17:08:35.984Z,98001.00
2019-01-11T17:11:05.674Z,97989.00
2019-01-11T17:13:40.531Z,97991.00
2019-01-11T17:16:06.245Z,98002.00
2019-01-11T17:18:35.556Z,97992.00
2019-01-11T17:21:04.932Z,97991.00
2019-01-11T17:23:34.292Z,97981.00
2019-01-11T17:26:03.709Z,97986.00
2019-01-11T17:28:33.738Z,97995.00
2019-01-11T17:31:03.080Z,97999.00
2019-01-11T17:33:32.431Z,97996.00
2019-01-11T17:36:01.884Z,98000.00
2019-01-11T17:38:31.254Z,97993.00
2019-01-11T17:41:00.624Z,97992.00
2019-01-11T17:43:30.041Z,97994.00
2019-01-11T17:45:59.350Z,97989.00
2019-01-11T17:48:28.762Z,97995.00
2019-01-11T17:50:58.163Z,97994.00
2019-01-11T17:53:28.190Z,97990.00
2019-01-11T17:55:57.537Z,98000.00
2019-01-11T17:58:26.920Z,97993.00
2019-01-11T18:00:56.268Z,97986.00
2019-01-11T18:03:25.705Z,98002.00
2019-01-11T18:05:55.086Z,98004.00
2019-01-11T18:08:24.453Z,98010.00
2019-01-11T18:10:53.803Z,98009.00
2019-01-11T18:13:23.290Z,98011.00
2019-01-11T18:15:52.737Z,98015.00
2019-01-11T18:18:22.740Z,98000.00
2019-01-11T18:20:52.122Z,98001.00
2019-01-11T18:23:21.458Z,98011.00
2019-01-11T18:25:50.802Z,98018.00
2019-01-11T18:28:20.172Z,98009.00
2019-01-11T18:30:49.512Z,97998.00
2019-01-11T18:33:18.862Z,97989.00
2019-01-11T18:35:48.250Z,97998.00
2019-01-11T18:38:17.604Z,98001.00
2019-01-11T18:40:46.945Z,97994.00
2019-01-11T18:43:16.324Z,98004.00
2019-01-11T18:45:45.666Z,98003.00
2019-01-11T18:48:15.038Z,98010.00
2019-01-11T18:50:44.427Z,98022.00
2019-01-11T18:53:14.158Z,98024.00
2019-01-11T18:55:43.980Z,98024.00
2019-01-11T18:58:14.791Z,98023.00
2019-01-11T19:00:46.981Z,98023.00
2019-01-11T19:03:16.357Z,98028.00
2019-01-11T19:05:45.709Z,98029.00
2019-01-11T19:08:15.110Z,98028.00
2019-01-11T19:10:44.544Z,98034.00
2019-01-11T19:13:13.930Z,98032.00
2019-01-11T19:15:43.281Z,98026.00
2019-01-11T19:18:12.630Z,98048.00
2019-01-11T19:20:42.562Z,98021.00
2019-01-11T19:23:11.938Z,98015.00
2019-01-11T19:25:41.298Z,98007.00
2019-01-11T19:28:10.659Z,98021.00
2019-01-11T19:30:40.004Z,98032.00
2019-01-11T19:33:09.350Z,98030.00
2019-01-11T19:35:38.743Z,98033.00
2019-01-11T19:38:08.301Z,98033.00
2019-01-11T19:40:37.652Z,98029.00
2019-01-11T19:43:07.105Z,98017.00
2019-01-11T19:45:36.441Z,98026.00
2019-01-11T19:48:07.142Z,98023.00
2019-01-11T19:50:36.504Z,98027.00
2019-01-11T19:53:06.001Z,98034.00
2019-01-11T19:55:35.341Z,98032.00
2019-01-11T19:58:05.967Z,98037.00
2019-01-11T20:00:35.317Z,98040.00
2019-01-11T20:03:04.836Z,98040.00
2019-01-11T20:05:34.638Z,98035.00
2019-01-11T20:08:04.291Z,98036.00
2019-01-11T20:10:33.870Z,98041.00
2019-01-11T20:13:04.123Z,98043.00
2019-01-11T20:15:33.547Z,98030.00
2019-01-11T20:18:03.567Z,98056.00
2019-01-11T20:20:33.006Z,98032.00
2019-01-11T20:23:02.911Z,98045.00
2019-01-11T20:25:32.332Z,98041.00
2019-01-11T20:28:01.764Z,98029.00
2019-01-11T20:30:31.186Z,98033.00
2019-01-11T20:33:00.595Z,98040.00
2019-01-11T20:35:30.638Z,98046.00
2019-01-11T20:38:00.789Z,98036.00
2019-01-11T20:40:30.272Z,98038.00
2019-01-11T20:42:59.673Z,98042.00
2019-01-11T20:45:29.017Z,98050.00
2019-01-11T20:47:58.380Z,98033.00
2019-01-11T20:50:28.341Z,98042.00
2019-01-11T20:52:57.951Z,98044.00
2019-01-11T20:55:27.376Z,98039.00
2019-01-11T20:57:56.882Z,98048.00
2019-01-11T21:00:30.103Z,98054.00
2019-01-11T21:02:59.675Z,98047.00
2019-01-11T21:05:29.465Z,98052.00
2019-01-11T21:07:58.874Z,98046.00
2019-01-11T21:10:28.686Z,98053.00
2019-01-11T21:12:58.125Z,98039.00
2019-01-11T21:15:27.527Z,98054.00
2019-01-11T21:17:56.965Z,98062.00
2019-01-11T21:20:26.459Z,98052.00
2019-01-11T21:22:55.803Z,98049.00
2019-01-11T21:25:25.208Z,98044.00
2019-01-11T21:27:54.877Z,98060.00
2019-01-11T21:30:27.799Z,98050.00
2019-01-11T21:32:57.581Z,98051.00
2019-01-11T21:35:27.157Z,98055.00
2019-01-11T21:37:56.585Z,98071.00
2019-01-11T21:40:25.938Z,98077.00
2019-01-11T21:42:55.341Z,98068.00
2019-01-11T21:45:24.678Z,98068.00
2019-01-11T21:47:54.041Z,98086.00
2019-01-11T21:50:25.358Z,98066.00
2019-01-11T21:52:54.828Z,98067.00
2019-01-11T21:55:24.372Z,98065.00
2019-01-11T21:57:53.934Z,98078.00
2019-01-11T22:00:36.398Z,98074.00
2019-01-11T22:03:08.624Z,98084.00
2019-01-11T22:05:37.969Z,98088.00
2019-01-11T22:08:07.320Z,98075.00
2019-01-11T22:10:37.055Z,98093.00
2019-01-11T22:13:06.469Z,98091.00
2019-01-11T22:15:35.811Z,98097.00
2019-01-11T22:18:05.773Z,98085.00
2019-01-11T22:20:35.135Z,98089.00
2019-01-11T22:23:04.640Z,98067.00
2019-01-11T22:25:33.995Z,98087.00
2019-01-11T22:28:03.356Z,98076.00
2019-01-11T22:30:32.721Z,98075.00
2019-01-11T22:33:02.531Z,98084.00
2019-01-11T22:35:31.882Z,98081.00
2019-01-11T22:38:01.221Z,98093.00
2019-01-11T22:40:30.574Z,98084.00
2019-01-11T22:43:00.015Z,98085.00
2019-01-11T22:45:29.434Z,98090.00
2019-01-11T22:47:58.795Z,98082.00
2019-01-11T22:50:28.160Z,98073.00
2019-01-11T22:52:57.516Z,98093.00
2019-01-11T22:55:27.284Z,98085.00
2019-01-11T22:57:56.626Z,98088.00
2019-01-11T23:00:42.154Z,98080.00
2019-01-11T23:03:19.255Z,98069.00
2019-01-11T23:05:53.388Z,98088.00
2019-01-11T23:08:22.813Z,98069.00
2019-01-11T23:11:07.347Z,98083.00
2019-01-11T23:13:36.701Z,98078.00
2019-01-11T23:16:08.570Z,98073.00
2019-01-11T23:18:37.946Z,98077.00
2019-01-11T23:21:07.369Z,98073.00
2019-01-11T23:23:36.734Z,98068.00
2019-01-11T23:26:06.112Z,98071.00
2019-01-11T23:28:35.451Z,98069.00
2019-01-11T23:31:04.800Z,98059.00
2019-01-11T23:33:34.541Z,98064.00
2019-01-11T23:36:04.411Z,98080.00
2019-01-11T23:38:33.758Z,98073.00
2019-01-11T23:41:03.143Z,98086.00
2019-01-11T23:43:32.506Z,98072.00
2019-01-11T23:46:01.872Z,98077.00
2019-01-11T23:48:31.238Z,98087.00
2019-01-11T23:51:00.595Z,98075.00
2019-01-11T23:53:29.961Z,98080.00
2019-01-11T23:55:59.360Z,98081.00
2019-01-11T23:58:28.701Z,98081.00
